Time;durP1;ratioP1;P1;durP2;ratioP2;P2;SDS_P1;SDS_P2;PMS_P1;PMS_P2;Temp;Humidity;BMP_temperature;BMP_pressure;BME280_temperature;BME280_humidity;BME280_pressure;Samples;Min_cycle;Max_cycle;Signal;HPM_P1;HPM_P2
2022/03/09 00:00:14;;;;;;;36.15;18.95;;;;;;;2.90;57.21;101263.44;6260798;23;20000;-81
2022/03/09 00:02:41;;;;;;;34.35;18.42;;;;;;;2.86;56.88;101264.53;6269103;23;20012;-82
2022/03/09 00:05:07;;;;;;;34.47;18.75;;;;;;;2.56;58.30;101267.25;6246615;23;20022;-82
2022/03/09 00:07:33;;;;;;;40.13;18.90;;;;;;;2.56;57.96;101262.88;6248177;22;20020;-84
2022/03/09 00:10:04;;;;;;;36.58;18.92;;;;;;;2.73;58.07;101272.31;6274685;22;19992;-86
2022/03/09 00:12:33;;;;;;;35.72;18.75;;;;;;;2.65;58.38;101286.81;6274001;22;20035;-81
2022/03/09 00:15:03;;;;;;;38.42;17.15;;;;;;;2.64;58.12;101279.88;6273676;22;20000;-86
2022/03/09 00:17:29;;;;;;;37.17;18.85;;;;;;;2.53;58.87;101278.75;6274005;22;20052;-83
2022/03/09 00:19:58;;;;;;;36.47;19.10;;;;;;;2.32;60.05;101285.25;6274175;22;19996;-82
2022/03/09 00:22:24;;;;;;;34.55;18.92;;;;;;;2.06;60.81;101286.78;6248087;22;20008;-82
2022/03/09 00:24:50;;;;;;;44.28;19.08;;;;;;;2.13;60.71;101300.34;6210770;23;20074;-82
2022/03/09 00:27:15;;;;;;;33.53;18.60;;;;;;;1.76;62.35;101291.16;6252175;23;20004;-81
2022/03/09 00:29:41;;;;;;;34.30;18.10;;;;;;;1.62;62.80;101293.75;6251324;23;20080;-81
2022/03/09 00:32:07;;;;;;;35.58;18.95;;;;;;;1.45;63.74;101301.69;6256364;23;20024;-82
2022/03/09 00:34:36;;;;;;;32.95;17.67;;;;;;;1.59;63.24;101304.38;6242731;22;20039;-82
2022/03/09 00:37:01;;;;;;;39.88;18.88;;;;;;;1.52;63.70;101301.22;6289717;22;20019;-82
2022/03/09 00:42:08;;;;;;;39.43;18.67;;;;;;;1.40;64.56;101298.47;6247648;22;20034;-83
2022/03/09 00:44:36;;;;;;;37.10;19.23;;;;;;;1.57;63.96;101290.53;6292872;22;20012;-82
2022/03/09 00:47:02;;;;;;;36.25;20.10;;;;;;;1.51;63.85;101286.50;6286634;22;20008;-81
2022/03/09 00:49:30;;;;;;;36.92;19.05;;;;;;;1.67;63.00;101290.84;6265377;22;20000;-83
2022/03/09 00:52:20;;;;;;;40.88;19.10;;;;;;;1.68;63.05;101290.78;6230473;22;20013;-85
2022/03/09 00:55:42;;;;;;;37.22;18.38;;;;;;;1.84;62.43;101293.34;6229280;23;20523;-82
2022/03/09 00:58:20;;;;;;;34.22;17.88;;;;;;;1.97;62.14;101299.56;6228515;23;20012;-83
2022/03/09 01:00:49;;;;;;;33.58;18.83;;;;;;;2.04;61.33;101291.28;6231470;23;20002;-85
2022/03/09 01:03:15;;;;;;;39.97;19.25;;;;;;;2.13;61.19;101289.91;6235416;23;20032;-83
2022/03/09 01:05:51;;;;;;;36.00;19.38;;;;;;;2.09;61.33;101286.63;6230209;23;20032;-84
2022/03/09 01:08:33;;;;;;;41.03;19.88;;;;;;;1.81;61.92;101296.16;6233803;23;20000;-83
2022/03/09 01:11:02;;;;;;;37.95;18.50;;;;;;;1.41;63.11;101285.34;6184490;23;19996;-83
2022/03/09 01:13:30;;;;;;;37.60;19.63;;;;;;;1.33;64.30;101289.28;6233791;23;20012;-86
2022/03/09 01:15:57;;;;;;;38.35;19.48;;;;;;;1.24;64.54;101293.25;6233146;22;20013;-86
2022/03/09 01:18:26;;;;;;;38.08;19.40;;;;;;;1.22;64.91;101294.25;6227280;22;20044;-84
2022/03/09 01:23:29;;;;;;;36.50;18.88;;;;;;;1.17;65.18;101280.59;6287256;22;20021;-86
2022/03/09 01:26:36;;;;;;;41.50;20.10;;;;;;;1.29;64.32;101270.34;6323634;22;20022;-85
2022/03/09 01:29:22;;;;;;;34.22;18.48;;;;;;;1.46;63.86;101272.84;6333016;22;20003;-85
2022/03/09 01:32:21;;;;;;;37.08;18.88;;;;;;;1.56;63.34;101263.56;6332085;22;20008;-86
2022/03/09 01:34:59;;;;;;;43.65;19.77;;;;;;;1.76;62.73;101258.97;6302927;22;20564;-87
2022/03/09 01:37:35;;;;;;;37.42;18.92;;;;;;;1.70;62.95;101267.16;6311361;22;20022;-86
2022/03/09 01:40:04;;;;;;;44.70;17.98;;;;;;;1.89;61.66;101266.00;6326736;22;20014;-86
2022/03/09 01:42:37;;;;;;;37.10;18.65;;;;;;;1.94;61.76;101257.91;6302660;22;19991;-88
2022/03/09 01:45:12;;;;;;;36.17;18.27;;;;;;;1.80;61.92;101265.72;6333792;22;20000;-88
2022/03/09 01:47:38;;;;;;;36.47;18.17;;;;;;;1.93;61.47;101264.06;6332000;22;20049;-88
2022/03/09 01:52:53;;;;;;;34.13;18.50;;;;;;;2.11;60.85;101257.78;6297853;22;20019;-88
2022/03/09 01:55:57;;;;;;;40.00;19.38;;;;;;;1.82;61.56;101258.63;6297081;22;20019;-88
2022/03/09 02:01:10;;;;;;;40.20;19.67;;;;;;;1.96;61.19;101250.81;6266298;22;20020;-87
2022/03/09 02:10:36;;;;;;;41.03;20.27;;;;;;;2.02;61.14;101245.25;6217016;23;20111;-85
2022/03/09 02:13:12;;;;;;;37.83;19.35;;;;;;;1.99;61.35;101245.41;6210922;23;20099;-86
2022/03/09 02:15:56;;;;;;;39.83;19.50;;;;;;;2.15;60.39;101254.06;6273482;23;20008;-88
2022/03/09 02:18:46;;;;;;;42.78;18.65;;;;;;;2.02;60.67;101240.03;6273668;22;20004;-87
2022/03/09 02:21:20;;;;;;;40.50;20.17;;;;;;;2.09;60.24;101243.94;6275177;22;19996;-89
2022/03/09 02:24:16;;;;;;;39.65;18.60;;;;;;;2.07;60.59;101240.59;6275264;22;19996;-87
2022/03/09 02:29:24;;;;;;;39.13;19.75;;;;;;;2.20;60.25;101238.94;6269024;22;20019;-88
2022/03/09 02:32:11;;;;;;;37.42;19.20;;;;;;;2.24;59.74;101245.66;6247854;22;20135;-89
2022/03/09 02:44:08;;;;;;;29.83;15.80;;;;;;;0.73;66.51;101249.09;6332683;22;20011;-88
2022/03/09 02:46:47;;;;;;;40.20;19.90;;;;;;;0.68;66.11;101240.66;6310855;22;19995;-90
2022/03/09 02:52:13;;;;;;;41.63;19.30;;;;;;;0.71;66.21;101245.72;6328154;22;20458;-90
2022/03/09 02:55:02;;;;;;;42.78;20.88;;;;;;;1.04;64.89;101249.13;6302362;22;20026;-88
2022/03/09 02:57:28;;;;;;;39.03;20.05;;;;;;;1.22;64.24;101248.13;6280584;22;20455;-87
2022/03/09 03:07:19;;;;;;;40.95;19.80;;;;;;;1.01;64.31;101264.94;6354239;22;20009;-88
2022/03/09 03:13:10;;;;;;;41.65;19.50;;;;;;;0.94;64.20;101263.59;6355920;22;20030;-87
2022/03/09 03:21:04;;;;;;;45.00;21.58;;;;;;;0.65;66.11;101266.91;6273519;22;20028;-91
2022/03/09 03:23:32;;;;;;;47.22;19.98;;;;;;;0.76;65.57;101261.97;6264621;23;20012;-88
2022/03/09 03:26:19;;;;;;;40.88;20.52;;;;;;;0.76;66.32;101259.38;6264325;23;20012;-89
2022/03/09 03:31:40;;;;;;;41.50;20.35;;;;;;;0.82;66.47;101277.31;6286892;22;20020;-87
2022/03/09 03:34:11;;;;;;;40.85;20.77;;;;;;;0.69;67.49;101273.66;6295163;22;20094;-89
2022/03/09 03:36:57;;;;;;;44.63;20.08;;;;;;;0.62;67.13;101272.28;6290718;22;20008;-88
2022/03/09 03:42:11;;;;;;;41.20;20.52;;;;;;;0.90;65.47;101270.72;6318541;22;20073;-88
2022/03/09 03:44:46;;;;;;;42.47;20.35;;;;;;;1.18;64.43;101272.69;6325784;22;20038;-88
2022/03/09 03:50:27;;;;;;;44.97;21.33;;;;;;;1.32;63.12;101270.19;6298422;22;20027;-88
2022/03/09 03:52:58;;;;;;;39.28;20.48;;;;;;;1.24;63.28;101271.50;6322704;22;20030;-86
2022/03/09 03:55:29;;;;;;;42.17;20.70;;;;;;;1.27;62.70;101266.13;6297549;22;20011;-86
2022/03/09 03:57:57;;;;;;;37.08;18.92;;;;;;;1.35;63.14;101264.78;6326404;22;20059;-87
2022/03/09 04:00:26;;;;;;;39.60;19.33;;;;;;;0.99;63.38;101261.59;6305166;22;20003;-87
2022/03/09 04:03:00;;;;;;;38.35;20.13;;;;;;;0.33;66.73;101256.38;6315761;22;20031;-85
2022/03/09 04:05:37;;;;;;;31.42;15.98;;;;;;;0.26;67.69;101255.03;6281206;22;20015;-87
2022/03/09 04:08:06;;;;;;;48.92;22.10;;;;;;;0.27;67.78;101263.66;6300327;22;20011;-88
2022/03/09 04:13:19;;;;;;;45.47;20.42;;;;;;;0.22;68.54;101261.31;6292096;22;20065;-86
2022/03/09 04:15:45;;;;;;;38.17;19.40;;;;;;;0.41;67.86;101254.22;6297591;22;20038;-88
2022/03/09 04:18:10;;;;;;;41.22;20.50;;;;;;;0.65;67.06;101259.09;6264974;22;20012;-88
2022/03/09 04:20:36;;;;;;;46.10;22.70;;;;;;;0.44;67.75;101264.50;6265916;22;20022;-87
2022/03/09 04:23:10;;;;;;;41.83;21.48;;;;;;;0.46;67.69;101267.03;6234525;22;20035;-88
2022/03/09 04:25:37;;;;;;;42.38;21.08;;;;;;;0.57;67.70;101269.91;6255347;22;20022;-89
2022/03/09 04:28:13;;;;;;;42.53;21.02;;;;;;;0.55;67.59;101270.94;6273311;22;20042;-88
2022/03/09 04:34:26;;;;;;;43.55;21.27;;;;;;;0.47;67.36;101269.56;6295284;22;20022;-88
2022/03/09 04:36:52;;;;;;;54.35;23.27;;;;;;;0.51;67.45;101268.47;6335948;22;20011;-89
2022/03/09 04:47:18;;;;;;;41.88;21.08;;;;;;;0.81;66.72;101273.84;6312325;22;20023;-87
2022/03/09 04:50:03;;;;;;;42.25;21.35;;;;;;;0.96;66.34;101273.00;6367942;22;20022;-85
2022/03/09 04:52:56;;;;;;;43.53;21.10;;;;;;;1.15;65.22;101274.63;6350656;22;20007;-89
2022/03/09 04:55:46;;;;;;;46.13;22.07;;;;;;;1.02;65.19;101275.31;6311091;22;20019;-85
2022/03/09 04:58:36;;;;;;;47.83;22.60;;;;;;;0.94;66.33;101274.88;6290869;22;20016;-83
2022/03/09 05:01:26;;;;;;;42.25;21.42;;;;;;;0.95;65.88;101273.97;6264334;22;20072;-83
2022/03/09 05:04:02;;;;;;;44.95;21.23;;;;;;;1.12;67.29;101272.19;6269511;23;20343;-83
2022/03/09 05:06:40;;;;;;;49.53;22.40;;;;;;;0.91;66.69;101268.97;6317717;22;20098;-86
2022/03/09 05:09:59;;;;;;;47.67;22.00;;;;;;;0.94;66.21;101284.47;6308958;22;20002;-84
2022/03/09 05:12:48;;;;;;;45.90;22.33;;;;;;;0.77;67.16;101284.50;6316200;22;20003;-81
2022/03/09 05:15:48;;;;;;;46.20;22.83;;;;;;;0.70;66.98;101283.16;6321706;22;20077;-86
2022/03/09 05:21:30;;;;;;;51.17;23.70;;;;;;;1.12;66.41;101282.63;6322585;22;20029;-83
2022/03/09 05:24:01;;;;;;;50.47;22.98;;;;;;;1.09;65.75;101278.44;6327578;22;19991;-83
2022/03/09 05:26:30;;;;;;;48.47;23.53;;;;;;;0.82;66.95;101279.91;6306157;22;20020;-81
2022/03/09 05:29:02;;;;;;;50.63;21.92;;;;;;;0.66;68.37;101266.84;6295911;22;20031;-87
2022/03/09 05:31:52;;;;;;;50.30;22.55;;;;;;;0.93;67.40;101272.31;6310060;22;20041;-85
2022/03/09 05:34:42;;;;;;;49.30;22.80;;;;;;;0.50;68.00;101274.59;6335077;22;20047;-82
2022/03/09 05:37:07;;;;;;;57.38;24.13;;;;;;;0.51;68.35;101284.13;6321716;22;20074;-83
2022/03/09 05:39:36;;;;;;;52.45;23.40;;;;;;;0.29;69.92;101282.69;6356001;22;20053;-83
2022/03/09 05:42:08;;;;;;;51.00;24.80;;;;;;;0.24;70.94;101284.69;6355953;22;20052;-84
2022/03/09 05:44:53;;;;;;;55.33;25.27;;;;;;;0.20;71.31;101285.78;6354915;22;20038;-82
2022/03/09 05:47:18;;;;;;;57.97;23.65;;;;;;;0.00;71.02;101305.03;6323600;22;20014;-83
2022/03/09 05:49:44;;;;;;;62.40;25.30;;;;;;;0.22;71.40;101302.19;6352328;22;20019;-84
2022/03/09 05:52:10;;;;;;;53.97;24.80;;;;;;;0.17;70.62;101307.59;6351039;22;20003;-86
2022/03/09 05:54:39;;;;;;;50.70;21.95;;;;;;;0.40;70.25;101302.06;6354507;22;20013;-83
2022/03/09 05:57:04;;;;;;;48.83;23.15;;;;;;;0.52;69.19;101298.84;6294270;22;20503;-86
2022/03/09 05:59:33;;;;;;;51.72;24.17;;;;;;;0.49;68.50;101304.25;6345528;22;20014;-86
2022/03/09 06:01:59;;;;;;;51.13;25.30;;;;;;;0.35;69.79;101311.06;6290911;22;20002;-87
2022/03/09 06:04:28;;;;;;;59.38;24.38;;;;;;;0.89;68.18;101312.59;6342789;22;20010;-86
2022/03/09 06:06:56;;;;;;;66.85;23.92;;;;;;;1.25;66.16;101310.59;6316337;22;20315;-83
2022/03/09 06:09:22;;;;;;;53.80;23.50;;;;;;;1.69;64.35;101315.97;6345334;22;20003;-87
2022/03/09 06:11:47;;;;;;;58.78;23.13;;;;;;;2.60;61.80;101315.88;6319757;22;20113;-83
2022/03/09 06:14:14;;;;;;;49.45;24.00;;;;;;;3.24;58.75;101325.88;6316386;22;20013;-88
2022/03/09 06:16:39;;;;;;;59.97;24.83;;;;;;;3.38;57.02;101331.06;6344326;22;20413;-83
2022/03/09 06:19:05;;;;;;;60.13;23.90;;;;;;;4.20;55.44;101328.34;6343602;22;20060;-88
2022/03/09 06:21:30;;;;;;;59.58;25.02;;;;;;;3.96;54.13;101337.81;6315494;22;20035;-84
2022/03/09 06:23:56;;;;;;;57.25;24.35;;;;;;;4.10;54.74;101337.78;6316674;22;20006;-83
2022/03/09 06:26:22;;;;;;;44.95;22.75;;;;;;;4.36;54.19;101334.25;6317705;22;20063;-86
2022/03/09 06:28:47;;;;;;;45.92;22.65;;;;;;;5.30;51.98;101338.25;6344033;22;20017;-84
2022/03/09 06:31:13;;;;;;;48.33;22.65;;;;;;;6.35;48.27;101347.19;6345749;22;20015;-85
2022/03/09 06:33:38;;;;;;;48.22;24.75;;;;;;;6.43;47.74;101347.44;6346416;22;20002;-84
2022/03/09 06:36:06;;;;;;;55.08;23.63;;;;;;;6.40;47.03;101355.56;6291845;22;20014;-83
2022/03/09 06:38:33;;;;;;;61.90;23.90;;;;;;;6.69;46.35;101351.56;6345222;22;20011;-83
2022/03/09 06:40:58;;;;;;;49.40;23.52;;;;;;;7.31;46.18;101350.31;6344079;22;20090;-83
2022/03/09 06:43:27;;;;;;;47.85;24.75;;;;;;;7.82;44.82;101354.88;6291182;22;20526;-86
2022/03/09 06:45:54;;;;;;;43.97;25.17;;;;;;;8.26;43.51;101356.53;6347074;22;20017;-87
2022/03/09 06:48:22;;;;;;;58.38;26.25;;;;;;;8.26;43.11;101353.06;6347234;22;20034;-90
2022/03/09 06:50:54;;;;;;;58.08;25.42;;;;;;;8.47;42.38;101353.09;6319764;22;20030;-88
2022/03/09 06:53:19;;;;;;;66.53;25.05;;;;;;;8.54;42.06;101362.19;6345476;22;20045;-83
2022/03/09 06:55:48;;;;;;;46.75;25.00;;;;;;;8.82;41.72;101366.81;6316788;22;20495;-86
2022/03/09 06:58:14;;;;;;;52.33;26.00;;;;;;;8.83;41.09;101358.78;6317735;22;20033;-87
2022/03/09 07:00:42;;;;;;;42.00;25.58;;;;;;;9.49;41.24;101356.56;6318429;22;20010;-87
2022/03/09 07:03:11;;;;;;;38.20;20.30;;;;;;;8.75;41.57;101366.50;6344726;22;20049;-84
2022/03/09 07:05:43;;;;;;;50.50;25.10;;;;;;;8.78;41.62;101365.44;6344465;22;20063;-85
2022/03/09 07:08:09;;;;;;;48.00;24.85;;;;;;;8.36;42.32;101369.84;6345227;22;20018;-85
2022/03/09 07:10:35;;;;;;;49.20;24.80;;;;;;;8.30;42.46;101371.19;6328240;22;20334;-85
2022/03/09 07:13:00;;;;;;;47.10;25.98;;;;;;;8.16;43.12;101375.91;6344100;22;20010;-87
2022/03/09 07:15:26;;;;;;;51.10;25.40;;;;;;;8.25;42.82;101378.63;6344073;22;20018;-87
2022/03/09 07:17:52;;;;;;;47.40;24.42;;;;;;;8.63;42.51;101379.91;6343761;22;20019;-87
2022/03/09 07:20:19;;;;;;;51.83;25.48;;;;;;;8.95;41.71;101377.22;6289735;22;20026;-87
2022/03/09 07:22:45;;;;;;;49.35;24.67;;;;;;;10.34;39.89;101392.13;6342918;22;20059;-88
2022/03/09 07:25:13;;;;;;;51.50;25.33;;;;;;;10.04;39.36;101384.25;6291441;22;20021;-86
2022/03/09 07:27:40;;;;;;;44.42;22.90;;;;;;;9.70;40.14;101391.72;6342841;22;20030;-86
2022/03/09 07:30:08;;;;;;;49.47;24.95;;;;;;;8.74;41.41;101406.28;6344052;22;20010;-87
2022/03/09 07:32:35;;;;;;;51.80;25.23;;;;;;;8.95;41.93;101403.66;6315726;22;20384;-88
2022/03/09 07:35:07;;;;;;;47.38;24.30;;;;;;;9.42;41.01;101402.19;6343707;22;20099;-86
2022/03/09 07:37:33;;;;;;;47.95;24.67;;;;;;;9.99;39.60;101406.84;6345264;22;20034;-86
2022/03/09 07:39:59;;;;;;;46.90;25.30;;;;;;;10.16;38.82;101408.84;6316815;22;20003;-87
2022/03/09 07:42:24;;;;;;;48.88;24.35;;;;;;;10.57;38.37;101421.81;6343890;22;20015;-86
2022/03/09 07:44:52;;;;;;;40.78;24.13;;;;;;;9.88;39.20;101422.84;6344479;22;20011;-86
2022/03/09 07:47:18;;;;;;;42.30;23.90;;;;;;;10.93;37.55;101424.72;6344947;22;20003;-86
2022/03/09 07:49:43;;;;;;;45.97;24.83;;;;;;;9.42;39.66;101424.22;6290902;22;20022;-85
2022/03/09 07:52:09;;;;;;;59.35;26.35;;;;;;;9.42;40.06;101418.91;6318643;22;20007;-88
2022/03/09 07:54:37;;;;;;;48.40;26.23;;;;;;;9.01;41.11;101429.56;6344967;22;20564;-87
2022/03/09 07:57:12;;;;;;;46.50;25.17;;;;;;;10.34;39.63;101425.75;6318325;22;20010;-86
2022/03/09 07:59:40;;;;;;;46.95;24.92;;;;;;;10.72;38.22;101433.69;6292547;22;20314;-88
2022/03/09 08:02:09;;;;;;;46.92;24.83;;;;;;;11.07;37.35;101429.59;6313351;22;20003;-88
2022/03/09 08:04:35;;;;;;;43.88;25.38;;;;;;;11.98;36.44;101423.50;6315567;22;20056;-89
2022/03/09 08:07:08;;;;;;;53.45;25.75;;;;;;;12.13;35.23;101422.03;6320119;22;20363;-90
2022/03/09 08:09:33;;;;;;;45.28;24.83;;;;;;;12.44;34.62;101437.47;6344441;22;20091;-89
2022/03/09 08:12:00;;;;;;;48.40;25.50;;;;;;;12.90;34.80;101436.34;6345636;22;20022;-87
2022/03/09 08:14:25;;;;;;;43.35;25.48;;;;;;;13.11;34.90;101437.88;6318039;22;20083;-89
2022/03/09 08:16:56;;;;;;;47.97;25.27;;;;;;;12.67;35.96;101437.81;6250698;22;20048;-90
2022/03/09 08:19:22;;;;;;;49.40;25.27;;;;;;;11.45;38.61;101432.13;6289864;22;20094;-91
2022/03/09 08:21:51;;;;;;;50.47;26.02;;;;;;;11.75;39.23;101429.25;6312520;22;20053;-88
2022/03/09 08:24:16;;;;;;;60.53;27.33;;;;;;;11.89;38.53;101430.56;6315572;22;20031;-88
2022/03/09 08:26:42;;;;;;;44.70;25.27;;;;;;;12.19;38.85;101432.06;6314737;22;20052;-87
2022/03/09 08:29:07;;;;;;;46.25;27.50;;;;;;;12.00;38.46;101421.56;6315338;22;20450;-89
2022/03/09 08:31:33;;;;;;;51.50;26.80;;;;;;;12.75;37.17;101426.44;6342634;22;20057;-90
2022/03/09 08:33:59;;;;;;;50.22;25.05;;;;;;;12.49;37.37;101423.72;6289388;22;20018;-88
2022/03/09 08:36:26;;;;;;;45.60;25.77;;;;;;;12.79;36.70;101425.13;6289398;22;20006;-91
2022/03/09 08:38:53;;;;;;;46.03;24.27;;;;;;;13.39;35.24;101428.72;6316091;22;20449;-89
2022/03/09 08:41:26;;;;;;;42.00;23.33;;;;;;;12.69;36.57;101429.72;6316271;22;20011;-88
2022/03/09 08:43:52;;;;;;;49.00;25.45;;;;;;;12.73;36.24;101428.38;6317405;22;20091;-89
2022/03/09 08:46:18;;;;;;;55.05;24.67;;;;;;;13.30;35.37;101435.00;6345395;22;20445;-89
2022/03/09 08:52:08;;;;;;;45.17;24.08;;;;;;;14.89;32.02;101439.28;6359641;22;19998;-88
2022/03/09 08:54:43;;;;;;;40.47;24.67;;;;;;;14.30;32.71;101440.38;6367482;22;20054;-89
2022/03/09 08:57:09;;;;;;;39.90;24.05;;;;;;;14.39;32.42;101428.75;6340401;22;20010;-89
2022/03/09 08:59:35;;;;;;;40.47;25.15;;;;;;;14.40;32.06;101427.78;6262665;22;20035;-90
2022/03/09 09:02:03;;;;;;;43.90;22.88;;;;;;;14.74;31.32;101425.81;6278106;22;20015;-88
2022/03/09 09:04:29;;;;;;;41.60;22.90;;;;;;;13.98;32.27;101426.00;6302986;22;20035;-86
2022/03/09 09:06:55;;;;;;;38.15;22.63;;;;;;;13.14;31.75;101418.91;6302761;22;20023;-86
2022/03/09 09:09:21;;;;;;;40.28;22.67;;;;;;;13.69;31.39;101430.03;6303770;22;20015;-85
2022/03/09 09:11:50;;;;;;;37.00;22.60;;;;;;;13.80;31.75;101421.75;6295117;22;20018;-84
2022/03/09 09:14:15;;;;;;;36.85;21.77;;;;;;;13.81;31.25;101423.44;6299321;22;20010;-86
2022/03/09 09:16:43;;;;;;;39.85;24.52;;;;;;;14.58;30.45;101427.63;6297066;22;20012;-85
2022/03/09 09:19:10;;;;;;;35.88;22.60;;;;;;;14.18;30.39;101421.22;6277619;22;20007;-85
2022/03/09 09:21:36;;;;;;;40.90;24.13;;;;;;;14.29;30.82;101426.22;6281546;22;20312;-85
2022/03/09 09:24:02;;;;;;;42.95;22.60;;;;;;;14.21;30.15;101418.22;6291585;22;20058;-82
2022/03/09 09:26:27;;;;;;;37.78;22.63;;;;;;;14.32;29.43;101419.72;6297201;22;20022;-85
2022/03/09 09:28:53;;;;;;;40.00;21.80;;;;;;;14.37;29.67;101420.94;6283636;22;20122;-85
2022/03/09 09:31:19;;;;;;;43.28;24.13;;;;;;;14.31;29.83;101420.72;6280567;22;20014;-85
2022/03/09 09:33:45;;;;;;;36.13;23.35;;;;;;;14.19;30.22;101414.03;6280075;22;20035;-86
2022/03/09 09:36:11;;;;;;;35.40;22.48;;;;;;;14.22;29.82;101413.72;6288180;22;20015;-82
2022/03/09 09:38:36;;;;;;;37.20;22.50;;;;;;;14.79;29.03;101412.78;6291996;22;20018;-85
2022/03/09 09:41:02;;;;;;;43.38;24.15;;;;;;;15.37;28.90;101409.00;6284903;22;20018;-86
2022/03/09 09:43:31;;;;;;;37.67;23.63;;;;;;;15.47;28.74;101398.97;6279375;22;20012;-84
2022/03/09 09:45:57;;;;;;;41.85;23.65;;;;;;;14.90;29.50;101396.44;6279405;22;20062;-84
2022/03/09 09:48:23;;;;;;;42.33;24.40;;;;;;;15.21;28.58;101387.69;6284504;22;20022;-82
2022/03/09 09:50:51;;;;;;;40.38;24.27;;;;;;;16.23;27.30;101385.75;6287468;22;20004;-84
2022/03/09 09:53:17;;;;;;;41.53;23.08;;;;;;;17.08;25.83;101386.34;6284484;22;20038;-86
2022/03/09 09:55:48;;;;;;;42.92;24.85;;;;;;;18.02;24.96;101381.03;6287767;22;19995;-83
2022/03/09 09:58:18;;;;;;;41.83;25.15;;;;;;;17.29;25.32;101378.44;6287512;22;20023;-82
2022/03/09 10:00:44;;;;;;;41.95;25.75;;;;;;;16.56;26.34;101381.00;6274706;22;20008;-83
2022/03/09 10:03:11;;;;;;;42.08;26.42;;;;;;;16.86;26.17;101377.38;6278548;22;20345;-82
2022/03/09 10:05:37;;;;;;;48.22;26.63;;;;;;;18.20;25.26;101377.91;6280253;22;20419;-85
2022/03/09 10:08:03;;;;;;;44.78;25.17;;;;;;;17.40;26.04;101379.81;6278251;22;20022;-85
2022/03/09 10:10:32;;;;;;;45.92;27.10;;;;;;;16.82;26.11;101376.06;6280672;22;20031;-84
2022/03/09 10:13:09;;;;;;;43.85;27.83;;;;;;;16.98;25.32;101375.91;6280895;22;20069;-82
2022/03/09 10:15:37;;;;;;;44.47;27.55;;;;;;;17.00;25.89;101373.88;6279838;22;20014;-83
2022/03/09 10:18:15;;;;;;;44.75;25.63;;;;;;;18.05;24.44;101374.47;6280057;22;20008;-82
2022/03/09 10:20:41;;;;;;;44.90;26.73;;;;;;;18.34;24.78;101368.13;6278379;22;20065;-84
2022/03/09 10:23:10;;;;;;;42.38;25.38;;;;;;;18.69;23.92;101374.47;6279099;22;20012;-83
2022/03/09 10:25:38;;;;;;;41.33;25.52;;;;;;;18.86;23.61;101367.78;6279728;22;20015;-84
2022/03/09 10:28:13;;;;;;;46.38;26.48;;;;;;;19.12;22.84;101372.53;6280246;22;20011;-83
2022/03/09 10:30:42;;;;;;;41.00;25.38;;;;;;;19.47;23.19;101366.97;6279569;22;20034;-86
2022/03/09 10:33:14;;;;;;;44.78;26.38;;;;;;;20.95;21.27;101373.06;6280607;22;20008;-84
2022/03/09 10:35:42;;;;;;;45.58;27.48;;;;;;;20.57;21.55;101372.03;6280732;22;20014;-83
2022/03/09 10:38:22;;;;;;;44.25;26.77;;;;;;;20.21;21.26;101366.19;6278629;22;20015;-83
2022/03/09 10:40:54;;;;;;;41.67;26.58;;;;;;;19.81;21.69;101359.88;6279029;22;20057;-87
2022/03/09 10:43:30;;;;;;;42.88;26.40;;;;;;;21.22;20.46;101367.66;6281229;22;20340;-83
2022/03/09 10:46:04;;;;;;;42.72;25.60;;;;;;;21.12;20.29;101362.69;6282850;22;20008;-85
2022/03/09 10:49:00;;;;;;;44.88;24.75;;;;;;;20.92;21.07;101360.00;6281260;22;20043;-84
2022/03/09 10:51:43;;;;;;;44.75;25.92;;;;;;;21.52;19.82;101364.25;6284336;22;20008;-89
2022/03/09 10:54:25;;;;;;;40.67;25.70;;;;;;;21.52;19.80;101353.44;6286669;22;20012;-84
2022/03/09 10:57:06;;;;;;;42.10;26.50;;;;;;;21.30;20.31;101346.69;6284085;22;20008;-84
2022/03/09 10:59:53;;;;;;;39.85;24.65;;;;;;;22.76;19.65;101351.06;6257281;22;20073;-86
2022/03/09 11:02:21;;;;;;;38.60;25.00;;;;;;;22.55;18.85;101343.28;6296847;22;20051;-87
2022/03/09 11:05:28;;;;;;;43.83;26.95;;;;;;;22.46;18.45;101347.31;6270434;22;20323;-85
2022/03/09 11:07:57;;;;;;;40.78;25.48;;;;;;;21.84;18.62;101346.22;6288936;22;20042;-84
2022/03/09 11:10:44;;;;;;;49.28;25.75;;;;;;;20.73;20.44;101346.56;6287427;22;20011;-87
2022/03/09 11:13:10;;;;;;;46.33;25.50;;;;;;;22.15;19.87;101334.66;6301265;22;20016;-87
2022/03/09 11:15:40;;;;;;;44.53;25.25;;;;;;;23.92;17.70;101332.03;6304787;22;20028;-86
2022/03/09 11:18:06;;;;;;;46.22;25.75;;;;;;;22.07;18.97;101330.34;6304070;22;20090;-88
2022/03/09 11:20:32;;;;;;;38.10;24.55;;;;;;;21.57;18.93;101323.97;6271519;22;20008;-85
2022/03/09 11:22:58;;;;;;;40.75;24.08;;;;;;;19.62;20.95;101307.66;6247562;22;20432;-85
2022/03/09 11:25:24;;;;;;;42.72;24.98;;;;;;;18.10;22.71;101314.88;6222008;22;20012;-84
2022/03/09 11:27:53;;;;;;;38.88;24.25;;;;;;;18.46;22.41;101307.56;6245850;22;20090;-86
2022/03/09 11:30:24;;;;;;;42.50;25.63;;;;;;;17.99;23.23;101303.63;6246128;22;20012;-87
2022/03/09 11:32:51;;;;;;;39.70;24.98;;;;;;;19.43;21.72;101294.97;6248066;22;20035;-85
2022/03/09 11:35:48;;;;;;;40.00;23.92;;;;;;;20.62;20.67;101302.22;6247389;22;20012;-85
2022/03/09 11:38:32;;;;;;;40.45;23.85;;;;;;;19.53;21.80;101298.94;6218953;22;20023;-85
2022/03/09 11:41:13;;;;;;;38.35;24.42;;;;;;;17.11;24.41;101278.00;6245277;22;20012;-87
2022/03/09 11:43:39;;;;;;;44.70;24.00;;;;;;;17.13;24.69;101276.00;6246993;22;20341;-87
2022/03/09 11:46:05;;;;;;;40.55;24.30;;;;;;;17.48;25.09;101280.53;6247873;22;20008;-85
2022/03/09 11:48:56;;;;;;;38.42;24.55;;;;;;;19.94;21.80;101271.94;6245319;22;20050;-85
2022/03/09 11:51:29;;;;;;;47.47;25.30;;;;;;;20.34;21.25;101278.22;6247213;22;20170;-84
2022/03/09 11:53:59;;;;;;;40.63;24.40;;;;;;;20.12;20.95;101282.09;6249393;22;20087;-85
2022/03/09 11:56:51;;;;;;;40.17;23.27;;;;;;;21.74;19.59;101275.75;6247733;22;20052;-84
2022/03/09 11:59:29;;;;;;;36.65;22.20;;;;;;;22.70;18.43;101272.75;6247200;22;20034;-86
2022/03/09 12:02:07;;;;;;;41.03;24.73;;;;;;;22.05;18.96;101267.66;6248696;22;20016;-83
2022/03/09 12:04:53;;;;;;;38.33;23.85;;;;;;;20.77;20.19;101266.97;6254000;22;20030;-88
2022/03/09 12:07:28;;;;;;;42.33;24.55;;;;;;;20.15;21.09;101267.41;6254491;22;20024;-82
2022/03/09 12:10:03;;;;;;;43.05;24.58;;;;;;;20.68;20.63;101268.25;6250808;22;20526;-80
2022/03/09 12:12:34;;;;;;;42.58;25.00;;;;;;;21.37;20.18;101257.69;6248881;22;20439;-86
2022/03/09 12:15:14;;;;;;;48.42;24.60;;;;;;;20.97;20.44;101257.81;6247218;22;20012;-82
2022/03/09 12:17:44;;;;;;;43.95;25.90;;;;;;;18.90;22.24;101240.13;6244849;22;20017;-83
2022/03/09 12:20:29;;;;;;;44.88;26.77;;;;;;;16.90;25.05;101234.06;6263491;22;20016;-84
2022/03/09 12:22:59;;;;;;;45.70;25.60;;;;;;;15.63;26.96;101233.25;6278761;22;20012;-80
2022/03/09 12:25:45;;;;;;;45.10;25.60;;;;;;;15.07;28.04;101236.22;6252202;22;20110;-82
2022/03/09 12:28:23;;;;;;;46.90;26.85;;;;;;;14.41;28.35;101237.44;6278083;22;20008;-82
2022/03/09 12:31:07;;;;;;;47.42;26.15;;;;;;;13.93;29.11;101225.75;6276875;22;20008;-82
2022/03/09 12:33:40;;;;;;;45.13;26.17;;;;;;;13.84;30.17;101220.59;6277025;22;20012;-79
2022/03/09 12:36:13;;;;;;;46.25;26.50;;;;;;;13.71;29.82;101215.78;6275619;22;20008;-80
2022/03/09 12:38:41;;;;;;;47.13;26.25;;;;;;;13.46;30.79;101214.06;6275430;22;20015;-81
2022/03/09 12:41:41;;;;;;;53.58;27.67;;;;;;;13.47;30.62;101202.41;6275493;22;20473;-82
2022/03/09 12:44:18;;;;;;;48.88;26.38;;;;;;;13.47;30.90;101205.06;6276396;22;20007;-79
2022/03/09 12:46:53;;;;;;;47.25;24.30;;;;;;;13.83;30.84;101203.78;6278135;22;20055;-82
2022/03/09 12:49:32;;;;;;;62.70;27.02;;;;;;;13.87;30.67;101202.44;6278459;22;20046;-83
2022/03/09 12:52:00;;;;;;;46.80;26.88;;;;;;;14.20;30.07;101210.41;6277914;22;20003;-84
2022/03/09 12:54:39;;;;;;;44.72;25.52;;;;;;;13.65;30.64;101205.78;6277348;22;20032;-84